PHOG METAR and TAF | Updated Today

PHOG METAR

Kahului Airport

Observation time: 51 min. ago

PHOG 251754Z 05014KT 10SM FEW025 SCT050 23/18 A3003 RMK AO2 SLP174 T02330183 10244 20161 53011

Need help? Read our tutorial on how to read METARs or read the parsed version below.

Kahului Airport (PHOG) METAR

  • Weather conditions on Wed, 25 May 2022 17:54:00 +0000 (51 min. ago):
  • Present conditions: Dry
  • Clouds: A few at 762 meters; scattered at 1524 meters
  • Visibility: 16093 meters
  • Wind: 50 degrees at 14 knots
  • Temperature: 23 celsius
  • Dew point: 18 celsius
  • Pressure: 30.03 inHg
  • Remarks: AO2 SLP174 T02330183 10244 20161 53011


Useful to know...

PHOG TAF

Kahului Airport

PHOG 251721Z 2518/2618 05010KT P6SM FEW035 FEW050 FM252200 04018G25KT P6SM FEW030 SCT050 FM260700 10005KT P6SM FEW035
Observation time: 84 min. ago
Need help? Read our tutorial on how to read TAFs or read the parsed version below.

Parsed version of TAF for Kahului Airport (PHOG)

  • From 25 May at 18:00 UTC, to day 26 of the month at 18:00 UTC
  • Clouds: A few at 1067 meters; a few at 1524 meters
  • Wind: 50 degrees at 10
  • From day 25 of the month at 22:00 UTC
  • Clouds: A few at 914 meters; scattered at 1524 meters
  • Wind: 40 degrees at 18
  • From day 26 of the month at 07:00 UTC
  • Clouds: A few at 1067 meters
  • Wind: 100 degrees at 5